sensor_id;sensor_type;location;lat;lon;timestamp;P1;durP1;ratioP1;P2;durP2;ratioP2
9374;SDS011;4727;51.202;6.344;2022-08-03T00:01:40;4.07;;;3.13;;
9374;SDS011;4727;51.202;6.344;2022-08-03T00:04:06;3.30;;;3.03;;
9374;SDS011;4727;51.202;6.344;2022-08-03T00:06:33;3.00;;;2.80;;
9374;SDS011;4727;51.202;6.344;2022-08-03T00:08:59;3.25;;;2.95;;
9374;SDS011;4727;51.202;6.344;2022-08-03T00:11:25;2.95;;;2.75;;
9374;SDS011;4727;51.202;6.344;2022-08-03T00:13:50;3.17;;;2.87;;
9374;SDS011;4727;51.202;6.344;2022-08-03T00:16:16;3.63;;;2.90;;
9374;SDS011;4727;51.202;6.344;2022-08-03T00:18:42;4.47;;;3.10;;
9374;SDS011;4727;51.202;6.344;2022-08-03T00:21:08;2.93;;;2.63;;
9374;SDS011;4727;51.202;6.344;2022-08-03T00:23:34;2.97;;;2.70;;
9374;SDS011;4727;51.202;6.344;2022-08-03T00:26:00;3.30;;;2.97;;
9374;SDS011;4727;51.202;6.344;2022-08-03T00:28:26;2.80;;;2.60;;
9374;SDS011;4727;51.202;6.344;2022-08-03T00:30:52;3.23;;;2.93;;
9374;SDS011;4727;51.202;6.344;2022-08-03T00:33:20;3.20;;;2.90;;
9374;SDS011;4727;51.202;6.344;2022-08-03T00:35:46;3.93;;;2.80;;
9374;SDS011;4727;51.202;6.344;2022-08-03T00:38:12;3.80;;;3.00;;
9374;SDS011;4727;51.202;6.344;2022-08-03T00:40:37;3.13;;;2.80;;
9374;SDS011;4727;51.202;6.344;2022-08-03T00:43:04;4.30;;;3.20;;
9374;SDS011;4727;51.202;6.344;2022-08-03T00:45:34;3.40;;;2.93;;
9374;SDS011;4727;51.202;6.344;2022-08-03T00:48:01;4.47;;;3.40;;
9374;SDS011;4727;51.202;6.344;2022-08-03T00:50:29;4.27;;;3.40;;
9374;SDS011;4727;51.202;6.344;2022-08-03T00:52:58;3.67;;;3.10;;
9374;SDS011;4727;51.202;6.344;2022-08-03T00:55:25;4.93;;;3.30;;
9374;SDS011;4727;51.202;6.344;2022-08-03T00:57:51;3.73;;;3.37;;
9374;SDS011;4727;51.202;6.344;2022-08-03T01:00:19;7.43;;;3.57;;
9374;SDS011;4727;51.202;6.344;2022-08-03T01:02:47;5.67;;;3.77;;
9374;SDS011;4727;51.202;6.344;2022-08-03T01:05:13;6.47;;;3.70;;
9374;SDS011;4727;51.202;6.344;2022-08-03T01:16:01;5.37;;;3.70;;
9374;SDS011;4727;51.202;6.344;2022-08-03T01:18:44;4.17;;;3.70;;
9374;SDS011;4727;51.202;6.344;2022-08-03T01:21:22;3.97;;;3.67;;
9374;SDS011;4727;51.202;6.344;2022-08-03T01:26:55;3.67;;;3.37;;
9374;SDS011;4727;51.202;6.344;2022-08-03T01:33:27;6.20;;;3.67;;
9374;SDS011;4727;51.202;6.344;2022-08-03T01:38:27;3.33;;;3.13;;
9374;SDS011;4727;51.202;6.344;2022-08-03T01:41:01;4.27;;;3.67;;
9374;SDS011;4727;51.202;6.344;2022-08-03T01:43:32;4.03;;;3.63;;
9374;SDS011;4727;51.202;6.344;2022-08-03T01:46:00;6.63;;;3.30;;
9374;SDS011;4727;51.202;6.344;2022-08-03T01:48:28;3.83;;;3.40;;
9374;SDS011;4727;51.202;6.344;2022-08-03T01:50:55;4.87;;;3.80;;
9374;SDS011;4727;51.202;6.344;2022-08-03T01:53:22;4.37;;;3.70;;
9374;SDS011;4727;51.202;6.344;2022-08-03T01:55:51;4.17;;;3.77;;
9374;SDS011;4727;51.202;6.344;2022-08-03T01:58:19;5.63;;;3.90;;
9374;SDS011;4727;51.202;6.344;2022-08-03T02:00:48;4.33;;;3.93;;
9374;SDS011;4727;51.202;6.344;2022-08-03T02:03:15;4.17;;;3.77;;
9374;SDS011;4727;51.202;6.344;2022-08-03T02:05:42;4.53;;;3.63;;
9374;SDS011;4727;51.202;6.344;2022-08-03T02:08:10;4.33;;;3.93;;
9374;SDS011;4727;51.202;6.344;2022-08-03T02:10:37;4.17;;;3.87;;
9374;SDS011;4727;51.202;6.344;2022-08-03T02:13:06;5.83;;;3.87;;
9374;SDS011;4727;51.202;6.344;2022-08-03T02:15:34;5.87;;;4.00;;
9374;SDS011;4727;51.202;6.344;2022-08-03T02:18:02;5.50;;;4.07;;
9374;SDS011;4727;51.202;6.344;2022-08-03T02:20:30;6.07;;;3.60;;
9374;SDS011;4727;51.202;6.344;2022-08-03T02:22:57;4.10;;;3.80;;
9374;SDS011;4727;51.202;6.344;2022-08-03T02:25:23;4.30;;;3.90;;
9374;SDS011;4727;51.202;6.344;2022-08-03T02:27:55;4.63;;;4.27;;
9374;SDS011;4727;51.202;6.344;2022-08-03T02:30:32;4.73;;;3.77;;
9374;SDS011;4727;51.202;6.344;2022-08-03T02:33:03;4.97;;;4.10;;
9374;SDS011;4727;51.202;6.344;2022-08-03T02:35:41;4.27;;;3.87;;
9374;SDS011;4727;51.202;6.344;2022-08-03T02:38:08;4.17;;;3.83;;
9374;SDS011;4727;51.202;6.344;2022-08-03T02:40:36;4.73;;;4.07;;
9374;SDS011;4727;51.202;6.344;2022-08-03T02:43:06;3.97;;;3.70;;
9374;SDS011;4727;51.202;6.344;2022-08-03T02:45:36;6.97;;;3.90;;
9374;SDS011;4727;51.202;6.344;2022-08-03T02:48:07;4.93;;;4.43;;
9374;SDS011;4727;51.202;6.344;2022-08-03T02:50:35;4.43;;;3.73;;
9374;SDS011;4727;51.202;6.344;2022-08-03T02:53:02;5.03;;;4.30;;
9374;SDS011;4727;51.202;6.344;2022-08-03T02:55:28;4.43;;;4.03;;
9374;SDS011;4727;51.202;6.344;2022-08-03T02:57:55;4.40;;;3.97;;
9374;SDS011;4727;51.202;6.344;2022-08-03T03:00:22;7.87;;;4.17;;
9374;SDS011;4727;51.202;6.344;2022-08-03T03:02:49;5.07;;;4.00;;
9374;SDS011;4727;51.202;6.344;2022-08-03T03:05:15;7.97;;;4.10;;
9374;SDS011;4727;51.202;6.344;2022-08-03T03:07:42;4.10;;;3.80;;
9374;SDS011;4727;51.202;6.344;2022-08-03T03:10:08;5.23;;;4.57;;
9374;SDS011;4727;51.202;6.344;2022-08-03T03:12:35;5.93;;;4.30;;
9374;SDS011;4727;51.202;6.344;2022-08-03T03:15:03;8.47;;;4.20;;
9374;SDS011;4727;51.202;6.344;2022-08-03T03:17:30;5.70;;;3.90;;
9374;SDS011;4727;51.202;6.344;2022-08-03T03:19:57;4.20;;;3.80;;
9374;SDS011;4727;51.202;6.344;2022-08-03T03:22:24;5.00;;;4.03;;
9374;SDS011;4727;51.202;6.344;2022-08-03T03:24:51;6.63;;;4.33;;
9374;SDS011;4727;51.202;6.344;2022-08-03T03:27:18;5.20;;;4.20;;
9374;SDS011;4727;51.202;6.344;2022-08-03T03:29:44;4.27;;;3.73;;
9374;SDS011;4727;51.202;6.344;2022-08-03T03:32:10;4.93;;;4.13;;
9374;SDS011;4727;51.202;6.344;2022-08-03T03:34:35;7.13;;;4.50;;
9374;SDS011;4727;51.202;6.344;2022-08-03T03:37:02;4.97;;;4.33;;
9374;SDS011;4727;51.202;6.344;2022-08-03T03:39:27;6.17;;;4.17;;
9374;SDS011;4727;51.202;6.344;2022-08-03T03:41:53;4.93;;;3.97;;
9374;SDS011;4727;51.202;6.344;2022-08-03T03:44:19;5.30;;;4.03;;
9374;SDS011;4727;51.202;6.344;2022-08-03T03:46:45;4.97;;;4.47;;
9374;SDS011;4727;51.202;6.344;2022-08-03T03:49:10;4.83;;;4.27;;
9374;SDS011;4727;51.202;6.344;2022-08-03T03:51:36;5.13;;;4.63;;
9374;SDS011;4727;51.202;6.344;2022-08-03T03:54:03;5.53;;;4.07;;
9374;SDS011;4727;51.202;6.344;2022-08-03T03:56:31;5.50;;;4.43;;
9374;SDS011;4727;51.202;6.344;2022-08-03T03:58:57;5.77;;;4.27;;
9374;SDS011;4727;51.202;6.344;2022-08-03T04:01:23;5.23;;;4.43;;
9374;SDS011;4727;51.202;6.344;2022-08-03T04:03:49;6.07;;;4.57;;
9374;SDS011;4727;51.202;6.344;2022-08-03T04:06:15;5.30;;;4.80;;
9374;SDS011;4727;51.202;6.344;2022-08-03T04:09:00;8.30;;;7.50;;
9374;SDS011;4727;51.202;6.344;2022-08-03T04:11:49;6.93;;;4.83;;
9374;SDS011;4727;51.202;6.344;2022-08-03T04:14:24;4.77;;;4.40;;
9374;SDS011;4727;51.202;6.344;2022-08-03T04:16:54;4.73;;;4.33;;
9374;SDS011;4727;51.202;6.344;2022-08-03T04:19:25;6.07;;;4.77;;
9374;SDS011;4727;51.202;6.344;2022-08-03T04:21:57;6.53;;;4.57;;
9374;SDS011;4727;51.202;6.344;2022-08-03T04:24:37;5.53;;;4.37;;
9374;SDS011;4727;51.202;6.344;2022-08-03T04:27:24;4.77;;;4.20;;
9374;SDS011;4727;51.202;6.344;2022-08-03T04:29:53;4.87;;;4.53;;
9374;SDS011;4727;51.202;6.344;2022-08-03T04:32:20;5.37;;;4.60;;
9374;SDS011;4727;51.202;6.344;2022-08-03T04:34:50;5.67;;;4.70;;
9374;SDS011;4727;51.202;6.344;2022-08-03T04:39:59;6.30;;;4.53;;
9374;SDS011;4727;51.202;6.344;2022-08-03T04:42:27;4.60;;;4.07;;
9374;SDS011;4727;51.202;6.344;2022-08-03T04:44:55;4.73;;;4.33;;
9374;SDS011;4727;51.202;6.344;2022-08-03T04:47:22;4.23;;;3.87;;
9374;SDS011;4727;51.202;6.344;2022-08-03T04:49:48;4.60;;;4.00;;
9374;SDS011;4727;51.202;6.344;2022-08-03T04:52:14;4.43;;;4.03;;
9374;SDS011;4727;51.202;6.344;2022-08-03T04:54:40;4.63;;;4.23;;
9374;SDS011;4727;51.202;6.344;2022-08-03T04:57:07;5.40;;;4.40;;
9374;SDS011;4727;51.202;6.344;2022-08-03T04:59:34;5.87;;;4.23;;
9374;SDS011;4727;51.202;6.344;2022-08-03T05:02:00;10.03;;;4.67;;
9374;SDS011;4727;51.202;6.344;2022-08-03T05:04:26;8.80;;;4.60;;
9374;SDS011;4727;51.202;6.344;2022-08-03T05:06:51;4.50;;;4.00;;
9374;SDS011;4727;51.202;6.344;2022-08-03T05:09:17;5.40;;;4.60;;
9374;SDS011;4727;51.202;6.344;2022-08-03T05:11:42;5.13;;;4.50;;
9374;SDS011;4727;51.202;6.344;2022-08-03T05:14:08;4.53;;;4.13;;
9374;SDS011;4727;51.202;6.344;2022-08-03T05:16:34;4.60;;;4.13;;
9374;SDS011;4727;51.202;6.344;2022-08-03T05:18:59;6.50;;;4.63;;
9374;SDS011;4727;51.202;6.344;2022-08-03T05:21:25;5.27;;;4.30;;
9374;SDS011;4727;51.202;6.344;2022-08-03T05:23:50;4.43;;;4.00;;
9374;SDS011;4727;51.202;6.344;2022-08-03T05:26:16;4.63;;;4.23;;
9374;SDS011;4727;51.202;6.344;2022-08-03T05:28:41;4.83;;;4.33;;
9374;SDS011;4727;51.202;6.344;2022-08-03T05:31:07;7.33;;;4.27;;
9374;SDS011;4727;51.202;6.344;2022-08-03T05:33:33;4.90;;;4.40;;
9374;SDS011;4727;51.202;6.344;2022-08-03T05:35:58;5.17;;;4.30;;
9374;SDS011;4727;51.202;6.344;2022-08-03T05:38:24;4.60;;;4.07;;
9374;SDS011;4727;51.202;6.344;2022-08-03T05:40:50;4.83;;;4.20;;
9374;SDS011;4727;51.202;6.344;2022-08-03T05:43:16;6.07;;;4.30;;
9374;SDS011;4727;51.202;6.344;2022-08-03T05:45:41;6.20;;;4.43;;
9374;SDS011;4727;51.202;6.344;2022-08-03T05:48:07;8.37;;;4.30;;
9374;SDS011;4727;51.202;6.344;2022-08-03T05:50:32;4.33;;;3.90;;
9374;SDS011;4727;51.202;6.344;2022-08-03T05:53:00;5.00;;;3.73;;
9374;SDS011;4727;51.202;6.344;2022-08-03T05:55:25;6.00;;;4.10;;
9374;SDS011;4727;51.202;6.344;2022-08-03T05:57:51;4.53;;;3.83;;
9374;SDS011;4727;51.202;6.344;2022-08-03T06:00:17;5.17;;;3.57;;
9374;SDS011;4727;51.202;6.344;2022-08-03T06:02:42;5.23;;;3.73;;
9374;SDS011;4727;51.202;6.344;2022-08-03T06:05:08;4.83;;;3.83;;
9374;SDS011;4727;51.202;6.344;2022-08-03T06:07:34;5.83;;;4.47;;
9374;SDS011;4727;51.202;6.344;2022-08-03T06:10:00;8.50;;;4.20;;
9374;SDS011;4727;51.202;6.344;2022-08-03T06:12:27;4.60;;;3.90;;
9374;SDS011;4727;51.202;6.344;2022-08-03T06:14:53;6.60;;;4.37;;
9374;SDS011;4727;51.202;6.344;2022-08-03T06:17:18;4.83;;;3.50;;
9374;SDS011;4727;51.202;6.344;2022-08-03T06:19:44;5.03;;;4.00;;
9374;SDS011;4727;51.202;6.344;2022-08-03T06:22:10;6.20;;;3.87;;
9374;SDS011;4727;51.202;6.344;2022-08-03T06:24:35;6.30;;;4.10;;
9374;SDS011;4727;51.202;6.344;2022-08-03T06:27:01;4.63;;;3.70;;
9374;SDS011;4727;51.202;6.344;2022-08-03T06:29:26;4.60;;;4.10;;
9374;SDS011;4727;51.202;6.344;2022-08-03T06:31:52;4.10;;;3.70;;
9374;SDS011;4727;51.202;6.344;2022-08-03T06:34:17;4.30;;;3.90;;
9374;SDS011;4727;51.202;6.344;2022-08-03T06:36:43;4.10;;;3.37;;
9374;SDS011;4727;51.202;6.344;2022-08-03T06:39:09;5.10;;;3.70;;
9374;SDS011;4727;51.202;6.344;2022-08-03T06:41:34;5.67;;;3.63;;
9374;SDS011;4727;51.202;6.344;2022-08-03T06:44:00;5.43;;;3.20;;
9374;SDS011;4727;51.202;6.344;2022-08-03T06:46:25;6.43;;;3.40;;
9374;SDS011;4727;51.202;6.344;2022-08-03T06:48:51;4.37;;;3.43;;
9374;SDS011;4727;51.202;6.344;2022-08-03T06:51:16;5.30;;;3.20;;
9374;SDS011;4727;51.202;6.344;2022-08-03T06:53:42;4.20;;;3.07;;
9374;SDS011;4727;51.202;6.344;2022-08-03T06:56:08;6.47;;;3.30;;
9374;SDS011;4727;51.202;6.344;2022-08-03T06:58:33;5.57;;;3.40;;
9374;SDS011;4727;51.202;6.344;2022-08-03T07:00:59;4.53;;;3.03;;
9374;SDS011;4727;51.202;6.344;2022-08-03T07:03:25;5.22;;;2.78;;
9374;SDS011;4727;51.202;6.344;2022-08-03T07:05:50;4.65;;;3.10;;
9374;SDS011;4727;51.202;6.344;2022-08-03T07:08:16;3.23;;;2.60;;
9374;SDS011;4727;51.202;6.344;2022-08-03T07:10:43;8.05;;;3.22;;
9374;SDS011;4727;51.202;6.344;2022-08-03T07:13:09;6.73;;;3.70;;
9374;SDS011;4727;51.202;6.344;2022-08-03T07:15:35;5.07;;;2.83;;
9374;SDS011;4727;51.202;6.344;2022-08-03T07:18:01;3.75;;;2.97;;
9374;SDS011;4727;51.202;6.344;2022-08-03T07:20:26;5.70;;;2.50;;
9374;SDS011;4727;51.202;6.344;2022-08-03T07:22:52;3.30;;;2.80;;
9374;SDS011;4727;51.202;6.344;2022-08-03T07:25:18;4.10;;;2.70;;
9374;SDS011;4727;51.202;6.344;2022-08-03T07:27:44;5.78;;;2.70;;
9374;SDS011;4727;51.202;6.344;2022-08-03T07:30:11;2.80;;;2.60;;
9374;SDS011;4727;51.202;6.344;2022-08-03T07:32:37;4.82;;;2.67;;
9374;SDS011;4727;51.202;6.344;2022-08-03T07:35:03;3.45;;;2.53;;
9374;SDS011;4727;51.202;6.344;2022-08-03T07:37:29;4.97;;;2.30;;
9374;SDS011;4727;51.202;6.344;2022-08-03T07:39:55;3.25;;;2.30;;
9374;SDS011;4727;51.202;6.344;2022-08-03T07:42:21;4.20;;;2.10;;
9374;SDS011;4727;51.202;6.344;2022-08-03T07:44:50;3.42;;;2.45;;
9374;SDS011;4727;51.202;6.344;2022-08-03T07:47:18;2.80;;;1.90;;
9374;SDS011;4727;51.202;6.344;2022-08-03T07:49:46;3.13;;;1.90;;
9374;SDS011;4727;51.202;6.344;2022-08-03T07:52:12;5.30;;;2.20;;
9374;SDS011;4727;51.202;6.344;2022-08-03T07:54:56;4.63;;;2.40;;
9374;SDS011;4727;51.202;6.344;2022-08-03T07:57:22;4.05;;;2.53;;
9374;SDS011;4727;51.202;6.344;2022-08-03T07:59:48;4.85;;;2.20;;
9374;SDS011;4727;51.202;6.344;2022-08-03T08:02:14;1.80;;;1.70;;
9374;SDS011;4727;51.202;6.344;2022-08-03T08:04:39;7.18;;;2.40;;
9374;SDS011;4727;51.202;6.344;2022-08-03T08:07:05;4.03;;;2.22;;
9374;SDS011;4727;51.202;6.344;2022-08-03T08:09:31;3.58;;;2.47;;
9374;SDS011;4727;51.202;6.344;2022-08-03T08:11:58;3.85;;;2.28;;
9374;SDS011;4727;51.202;6.344;2022-08-03T08:14:23;3.20;;;2.20;;
9374;SDS011;4727;51.202;6.344;2022-08-03T08:16:49;3.65;;;2.17;;
9374;SDS011;4727;51.202;6.344;2022-08-03T08:19:15;3.70;;;2.10;;
9374;SDS011;4727;51.202;6.344;2022-08-03T08:21:41;2.25;;;2.15;;
9374;SDS011;4727;51.202;6.344;2022-08-03T08:24:09;2.55;;;2.03;;
9374;SDS011;4727;51.202;6.344;2022-08-03T08:26:35;3.15;;;1.92;;
9374;SDS011;4727;51.202;6.344;2022-08-03T08:29:01;2.97;;;2.13;;
9374;SDS011;4727;51.202;6.344;2022-08-03T08:31:27;1.92;;;1.83;;
9374;SDS011;4727;51.202;6.344;2022-08-03T08:33:53;4.03;;;2.30;;
9374;SDS011;4727;51.202;6.344;2022-08-03T08:36:18;2.95;;;2.10;;
9374;SDS011;4727;51.202;6.344;2022-08-03T08:38:44;3.72;;;2.10;;
9374;SDS011;4727;51.202;6.344;2022-08-03T08:41:10;3.42;;;1.80;;
9374;SDS011;4727;51.202;6.344;2022-08-03T08:43:37;2.85;;;2.03;;
9374;SDS011;4727;51.202;6.344;2022-08-03T08:46:02;3.65;;;2.20;;
9374;SDS011;4727;51.202;6.344;2022-08-03T08:48:31;2.75;;;2.30;;
9374;SDS011;4727;51.202;6.344;2022-08-03T08:50:59;4.70;;;2.35;;
9374;SDS011;4727;51.202;6.344;2022-08-03T08:53:26;2.75;;;2.50;;
9374;SDS011;4727;51.202;6.344;2022-08-03T08:55:54;6.78;;;2.47;;
9374;SDS011;4727;51.202;6.344;2022-08-03T08:58:24;2.90;;;2.10;;
9374;SDS011;4727;51.202;6.344;2022-08-03T09:00:52;2.92;;;1.83;;
9374;SDS011;4727;51.202;6.344;2022-08-03T09:03:18;2.15;;;2.00;;
9374;SDS011;4727;51.202;6.344;2022-08-03T09:05:44;5.20;;;2.17;;
9374;SDS011;4727;51.202;6.344;2022-08-03T09:08:10;4.30;;;2.47;;
9374;SDS011;4727;51.202;6.344;2022-08-03T09:10:36;2.38;;;2.28;;
9374;SDS011;4727;51.202;6.344;2022-08-03T09:13:01;3.00;;;2.20;;
9374;SDS011;4727;51.202;6.344;2022-08-03T09:15:28;3.20;;;2.28;;
9374;SDS011;4727;51.202;6.344;2022-08-03T09:17:57;3.60;;;2.15;;
9374;SDS011;4727;51.202;6.344;2022-08-03T09:20:28;2.97;;;2.30;;
9374;SDS011;4727;51.202;6.344;2022-08-03T09:22:59;2.65;;;2.30;;
9374;SDS011;4727;51.202;6.344;2022-08-03T09:25:59;4.95;;;2.45;;
9374;SDS011;4727;51.202;6.344;2022-08-03T09:28:21;2.53;;;2.10;;
9374;SDS011;4727;51.202;6.344;2022-08-03T09:30:57;3.20;;;2.00;;
9374;SDS011;4727;51.202;6.344;2022-08-03T09:33:23;2.05;;;1.90;;
9374;SDS011;4727;51.202;6.344;2022-08-03T09:35:49;3.33;;;1.98;;
9374;SDS011;4727;51.202;6.344;2022-08-03T09:38:19;2.22;;;2.13;;
9374;SDS011;4727;51.202;6.344;2022-08-03T09:40:52;2.42;;;2.20;;
9374;SDS011;4727;51.202;6.344;2022-08-03T09:43:19;2.45;;;2.00;;
9374;SDS011;4727;51.202;6.344;2022-08-03T09:45:45;4.95;;;2.50;;
9374;SDS011;4727;51.202;6.344;2022-08-03T09:50:51;2.47;;;2.13;;
9374;SDS011;4727;51.202;6.344;2022-08-03T09:53:31;3.50;;;2.40;;
9374;SDS011;4727;51.202;6.344;2022-08-03T09:56:09;2.80;;;2.00;;
9374;SDS011;4727;51.202;6.344;2022-08-03T09:58:38;2.20;;;2.00;;
9374;SDS011;4727;51.202;6.344;2022-08-03T10:01:10;2.53;;;2.33;;
9374;SDS011;4727;51.202;6.344;2022-08-03T10:03:37;2.90;;;1.63;;
9374;SDS011;4727;51.202;6.344;2022-08-03T10:06:13;3.70;;;2.15;;
9374;SDS011;4727;51.202;6.344;2022-08-03T10:08:40;2.97;;;2.20;;
9374;SDS011;4727;51.202;6.344;2022-08-03T10:11:06;2.28;;;2.10;;
9374;SDS011;4727;51.202;6.344;2022-08-03T10:13:32;2.75;;;2.15;;
9374;SDS011;4727;51.202;6.344;2022-08-03T10:15:58;3.90;;;3.47;;
9374;SDS011;4727;51.202;6.344;2022-08-03T10:18:23;2.60;;;2.30;;
9374;SDS011;4727;51.202;6.344;2022-08-03T10:20:52;2.47;;;1.90;;
9374;SDS011;4727;51.202;6.344;2022-08-03T10:23:22;2.85;;;2.28;;
9374;SDS011;4727;51.202;6.344;2022-08-03T10:25:52;2.22;;;2.13;;
9374;SDS011;4727;51.202;6.344;2022-08-03T10:28:21;3.13;;;1.98;;
9374;SDS011;4727;51.202;6.344;2022-08-03T10:30:49;3.70;;;2.13;;
9374;SDS011;4727;51.202;6.344;2022-08-03T10:33:18;4.47;;;2.28;;
9374;SDS011;4727;51.202;6.344;2022-08-03T10:35:53;3.40;;;2.10;;
9374;SDS011;4727;51.202;6.344;2022-08-03T10:38:22;2.47;;;2.17;;
9374;SDS011;4727;51.202;6.344;2022-08-03T10:40:53;3.00;;;2.40;;
9374;SDS011;4727;51.202;6.344;2022-08-03T10:43:25;3.40;;;2.60;;
9374;SDS011;4727;51.202;6.344;2022-08-03T10:45:54;6.38;;;5.38;;
9374;SDS011;4727;51.202;6.344;2022-08-03T10:48:20;3.05;;;2.53;;
9374;SDS011;4727;51.202;6.344;2022-08-03T10:50:47;6.05;;;2.30;;
9374;SDS011;4727;51.202;6.344;2022-08-03T10:53:14;3.60;;;2.35;;
9374;SDS011;4727;51.202;6.344;2022-08-03T10:55:44;2.78;;;2.15;;
9374;SDS011;4727;51.202;6.344;2022-08-03T11:01:01;3.05;;;2.10;;
9374;SDS011;4727;51.202;6.344;2022-08-03T11:03:31;2.55;;;1.90;;
9374;SDS011;4727;51.202;6.344;2022-08-03T11:06:19;2.65;;;1.88;;
9374;SDS011;4727;51.202;6.344;2022-08-03T11:08:47;3.13;;;1.90;;
9374;SDS011;4727;51.202;6.344;2022-08-03T11:14:03;5.30;;;2.30;;
9374;SDS011;4727;51.202;6.344;2022-08-03T11:16:36;4.00;;;2.10;;
9374;SDS011;4727;51.202;6.344;2022-08-03T11:19:07;4.47;;;2.30;;
9374;SDS011;4727;51.202;6.344;2022-08-03T11:21:56;3.10;;;2.30;;
9374;SDS011;4727;51.202;6.344;2022-08-03T11:35:10;2.33;;;2.15;;
9374;SDS011;4727;51.202;6.344;2022-08-03T11:43:04;3.60;;;1.80;;
9374;SDS011;4727;51.202;6.344;2022-08-03T11:45:34;2.40;;;1.92;;
9374;SDS011;4727;51.202;6.344;2022-08-03T11:48:14;2.95;;;2.00;;
9374;SDS011;4727;51.202;6.344;2022-08-03T11:50:41;3.80;;;1.58;;
9374;SDS011;4727;51.202;6.344;2022-08-03T11:53:12;4.85;;;2.22;;
9374;SDS011;4727;51.202;6.344;2022-08-03T11:55:40;3.15;;;2.15;;
9374;SDS011;4727;51.202;6.344;2022-08-03T11:58:09;1.98;;;1.63;;
9374;SDS011;4727;51.202;6.344;2022-08-03T12:00:40;2.05;;;1.73;;
9374;SDS011;4727;51.202;6.344;2022-08-03T12:03:06;4.07;;;2.15;;
9374;SDS011;4727;51.202;6.344;2022-08-03T12:08:04;3.13;;;1.77;;
9374;SDS011;4727;51.202;6.344;2022-08-03T12:10:31;4.93;;;2.30;;
9374;SDS011;4727;51.202;6.344;2022-08-03T12:12:58;2.95;;;1.95;;
9374;SDS011;4727;51.202;6.344;2022-08-03T12:15:25;2.65;;;1.50;;
9374;SDS011;4727;51.202;6.344;2022-08-03T12:17:52;2.35;;;1.85;;
9374;SDS011;4727;51.202;6.344;2022-08-03T12:20:22;3.42;;;1.70;;
9374;SDS011;4727;51.202;6.344;2022-08-03T12:22:49;3.85;;;1.50;;
9374;SDS011;4727;51.202;6.344;2022-08-03T12:25:22;2.95;;;1.48;;
9374;SDS011;4727;51.202;6.344;2022-08-03T12:27:52;2.03;;;1.80;;
9374;SDS011;4727;51.202;6.344;2022-08-03T12:30:18;3.95;;;1.55;;
9374;SDS011;4727;51.202;6.344;2022-08-03T12:32:44;3.38;;;1.67;;
9374;SDS011;4727;51.202;6.344;2022-08-03T12:35:20;2.20;;;1.98;;
9374;SDS011;4727;51.202;6.344;2022-08-03T12:37:50;1.98;;;1.40;;
9374;SDS011;4727;51.202;6.344;2022-08-03T12:40:25;2.78;;;1.48;;
9374;SDS011;4727;51.202;6.344;2022-08-03T12:42:51;2.33;;;1.65;;
9374;SDS011;4727;51.202;6.344;2022-08-03T12:45:24;3.08;;;1.60;;
9374;SDS011;4727;51.202;6.344;2022-08-03T12:47:52;1.73;;;1.58;;
9374;SDS011;4727;51.202;6.344;2022-08-03T12:50:34;3.40;;;1.60;;
9374;SDS011;4727;51.202;6.344;2022-08-03T12:53:03;3.65;;;1.42;;
9374;SDS011;4727;51.202;6.344;2022-08-03T12:55:30;1.83;;;1.50;;
9374;SDS011;4727;51.202;6.344;2022-08-03T12:57:59;2.50;;;1.27;;
9374;SDS011;4727;51.202;6.344;2022-08-03T13:00:26;2.83;;;1.48;;
9374;SDS011;4727;51.202;6.344;2022-08-03T13:03:00;3.40;;;1.50;;
9374;SDS011;4727;51.202;6.344;2022-08-03T13:05:28;1.25;;;1.02;;
9374;SDS011;4727;51.202;6.344;2022-08-03T13:07:54;3.03;;;1.30;;
9374;SDS011;4727;51.202;6.344;2022-08-03T13:10:27;1.02;;;1.00;;
9374;SDS011;4727;51.202;6.344;2022-08-03T13:12:54;1.75;;;1.40;;
9374;SDS011;4727;51.202;6.344;2022-08-03T13:15:23;1.65;;;1.17;;
9374;SDS011;4727;51.202;6.344;2022-08-03T13:17:52;2.97;;;1.08;;
9374;SDS011;4727;51.202;6.344;2022-08-03T13:20:19;4.85;;;1.77;;
9374;SDS011;4727;51.202;6.344;2022-08-03T13:22:45;1.63;;;1.25;;
9374;SDS011;4727;51.202;6.344;2022-08-03T13:25:12;1.00;;;0.95;;
9374;SDS011;4727;51.202;6.344;2022-08-03T13:27:38;2.15;;;1.05;;
9374;SDS011;4727;51.202;6.344;2022-08-03T13:30:05;1.48;;;1.00;;
9374;SDS011;4727;51.202;6.344;2022-08-03T13:32:32;4.43;;;1.10;;
9374;SDS011;4727;51.202;6.344;2022-08-03T13:34:59;1.38;;;1.10;;
9374;SDS011;4727;51.202;6.344;2022-08-03T13:37:26;1.33;;;1.17;;
9374;SDS011;4727;51.202;6.344;2022-08-03T13:39:52;1.80;;;1.20;;
9374;SDS011;4727;51.202;6.344;2022-08-03T13:42:18;2.20;;;0.85;;
9374;SDS011;4727;51.202;6.344;2022-08-03T13:44:43;2.83;;;1.60;;
9374;SDS011;4727;51.202;6.344;2022-08-03T13:47:09;1.60;;;0.90;;
9374;SDS011;4727;51.202;6.344;2022-08-03T13:49:34;2.03;;;1.33;;
9374;SDS011;4727;51.202;6.344;2022-08-03T13:52:00;3.03;;;1.50;;
9374;SDS011;4727;51.202;6.344;2022-08-03T13:54:26;1.92;;;1.50;;
9374;SDS011;4727;51.202;6.344;2022-08-03T13:56:51;1.50;;;1.38;;
9374;SDS011;4727;51.202;6.344;2022-08-03T13:59:20;2.47;;;1.15;;
9374;SDS011;4727;51.202;6.344;2022-08-03T14:01:47;2.33;;;1.27;;
9374;SDS011;4727;51.202;6.344;2022-08-03T14:04:13;2.17;;;1.20;;
9374;SDS011;4727;51.202;6.344;2022-08-03T14:06:39;3.63;;;1.48;;
9374;SDS011;4727;51.202;6.344;2022-08-03T14:09:05;1.13;;;1.10;;
9374;SDS011;4727;51.202;6.344;2022-08-03T14:11:30;1.48;;;0.90;;
9374;SDS011;4727;51.202;6.344;2022-08-03T14:13:56;2.58;;;1.20;;
9374;SDS011;4727;51.202;6.344;2022-08-03T14:16:21;1.98;;;1.10;;
9374;SDS011;4727;51.202;6.344;2022-08-03T14:18:47;3.35;;;1.50;;
9374;SDS011;4727;51.202;6.344;2022-08-03T14:21:13;2.88;;;1.30;;
9374;SDS011;4727;51.202;6.344;2022-08-03T14:23:38;2.40;;;1.15;;
9374;SDS011;4727;51.202;6.344;2022-08-03T14:26:05;2.65;;;1.33;;
9374;SDS011;4727;51.202;6.344;2022-08-03T14:28:31;2.60;;;1.33;;
9374;SDS011;4727;51.202;6.344;2022-08-03T14:30:57;1.60;;;1.40;;
9374;SDS011;4727;51.202;6.344;2022-08-03T14:33:23;1.48;;;1.33;;
9374;SDS011;4727;51.202;6.344;2022-08-03T14:35:49;1.50;;;1.40;;
9374;SDS011;4727;51.202;6.344;2022-08-03T14:38:16;2.95;;;1.35;;
9374;SDS011;4727;51.202;6.344;2022-08-03T14:40:42;2.47;;;1.23;;
9374;SDS011;4727;51.202;6.344;2022-08-03T14:43:08;1.80;;;1.15;;
9374;SDS011;4727;51.202;6.344;2022-08-03T14:45:33;1.40;;;1.30;;
9374;SDS011;4727;51.202;6.344;2022-08-03T14:47:59;4.72;;;1.77;;
9374;SDS011;4727;51.202;6.344;2022-08-03T14:50:25;3.47;;;1.70;;
9374;SDS011;4727;51.202;6.344;2022-08-03T14:52:54;1.85;;;1.33;;
9374;SDS011;4727;51.202;6.344;2022-08-03T14:55:20;1.70;;;1.50;;
9374;SDS011;4727;51.202;6.344;2022-08-03T14:57:45;2.55;;;1.55;;
9374;SDS011;4727;51.202;6.344;2022-08-03T15:00:11;2.80;;;1.63;;
9374;SDS011;4727;51.202;6.344;2022-08-03T15:02:37;2.65;;;1.40;;
9374;SDS011;4727;51.202;6.344;2022-08-03T15:05:03;1.70;;;1.38;;
9374;SDS011;4727;51.202;6.344;2022-08-03T15:07:29;2.15;;;1.27;;
9374;SDS011;4727;51.202;6.344;2022-08-03T15:09:54;1.48;;;1.38;;
9374;SDS011;4727;51.202;6.344;2022-08-03T15:12:20;2.58;;;1.75;;
9374;SDS011;4727;51.202;6.344;2022-08-03T15:14:45;1.77;;;1.67;;
9374;SDS011;4727;51.202;6.344;2022-08-03T15:17:11;2.70;;;1.38;;
9374;SDS011;4727;51.202;6.344;2022-08-03T15:19:36;3.15;;;1.42;;
9374;SDS011;4727;51.202;6.344;2022-08-03T15:22:03;6.10;;;2.05;;
9374;SDS011;4727;51.202;6.344;2022-08-03T15:24:29;1.45;;;1.33;;
9374;SDS011;4727;51.202;6.344;2022-08-03T15:26:54;3.05;;;1.50;;
9374;SDS011;4727;51.202;6.344;2022-08-03T15:29:20;1.42;;;1.33;;
9374;SDS011;4727;51.202;6.344;2022-08-03T15:31:45;2.03;;;1.42;;
9374;SDS011;4727;51.202;6.344;2022-08-03T15:34:11;3.17;;;1.38;;
9374;SDS011;4727;51.202;6.344;2022-08-03T15:36:37;1.50;;;1.40;;
9374;SDS011;4727;51.202;6.344;2022-08-03T15:39:03;2.42;;;1.65;;
9374;SDS011;4727;51.202;6.344;2022-08-03T15:41:29;2.28;;;1.40;;
9374;SDS011;4727;51.202;6.344;2022-08-03T15:43:55;2.70;;;1.55;;
9374;SDS011;4727;51.202;6.344;2022-08-03T15:46:20;3.72;;;1.63;;
9374;SDS011;4727;51.202;6.344;2022-08-03T15:48:46;1.33;;;1.30;;
9374;SDS011;4727;51.202;6.344;2022-08-03T15:51:11;3.38;;;1.50;;
9374;SDS011;4727;51.202;6.344;2022-08-03T15:53:37;3.03;;;1.48;;
9374;SDS011;4727;51.202;6.344;2022-08-03T15:56:03;4.00;;;1.83;;
9374;SDS011;4727;51.202;6.344;2022-08-03T15:58:31;3.08;;;1.45;;
9374;SDS011;4727;51.202;6.344;2022-08-03T16:00:57;2.50;;;1.30;;
9374;SDS011;4727;51.202;6.344;2022-08-03T16:03:24;1.83;;;1.60;;
9374;SDS011;4727;51.202;6.344;2022-08-03T16:05:50;3.05;;;2.25;;